Terminal Aerodrome Forecast
Issued by NWS

Home | Current Version | Previous Version | Text Only | Print | Product List | Glossary On
Versions: 1 2 3 4 5 6 7 8 9 10 11 12 13 14 15 16 17 18 19 20 21 22 23 24 25
000
FTUS44 KHGX 262328
TAFIAH
TAF
KIAH 262328Z 2700/2806 35007KT P6SM FEW250
     FM270200 VRB03KT P6SM SCT120
     FM271500 35008KT P6SM SCT100
     FM280100 VRB03KT P6SM FEW300=

USA.gov is the U.S. government's official web portal to all federal, state and local government web resources and services.